Time;durP1;ratioP1;P1;durP2;ratioP2;P2;SDS_P1;SDS_P2;PMS_P1;PMS_P2;Temp;Humidity;BMP_temperature;BMP_pressure;BME280_temperature;BME280_humidity;BME280_pressure;Samples;Min_cycle;Max_cycle;Signal;HPM_P1;HPM_P2
2021/09/05 00:01:32;;;;;;;;;;;20.80;55.20;;;;;;5061413;27;82112;-58
2021/09/05 00:04:01;;;;;;;;;;;20.80;55.30;;;;;;5063119;27;83605;-58
2021/09/05 00:06:27;;;;;;;;;;;20.80;55.30;;;;;;5061407;27;84788;-57
2021/09/05 00:08:53;;;;;;;;;;;20.70;55.20;;;;;;5065517;27;83407;-58
2021/09/05 00:11:18;;;;;;;;;;;20.70;55.20;;;;;;5063614;27;81917;-58
2021/09/05 00:13:44;;;;;;;;;;;20.70;55.30;;;;;;5062759;27;83359;-58
2021/09/05 00:16:09;;;;;;;;;;;20.70;55.20;;;;;;5061474;27;82582;-57
2021/09/05 00:18:35;;;;;;;;;;;20.70;55.30;;;;;;5060993;27;82983;-58
2021/09/05 00:21:00;;;;;;;;;;;20.70;55.20;;;;;;5061594;27;82157;-56
2021/09/05 00:23:26;;;;;;;;;;;20.70;55.20;;;;;;5060992;27;82605;-58
2021/09/05 00:25:52;;;;;;;;;;;20.70;55.20;;;;;;5061101;27;82675;-58
2021/09/05 00:28:17;;;;;;;;;;;20.70;55.20;;;;;;5064332;27;82164;-58
2021/09/05 00:30:42;;;;;;;;;;;20.60;55.20;;;;;;5060996;27;84217;-58
2021/09/05 00:33:08;;;;;;;;;;;20.60;55.20;;;;;;5060648;27;82147;-58
2021/09/05 00:35:34;;;;;;;;;;;20.70;55.20;;;;;;5061622;27;82616;-58
2021/09/05 00:37:59;;;;;;;;;;;20.60;55.10;;;;;;5061329;27;84411;-58
2021/09/05 00:40:25;;;;;;;;;;;20.60;55.20;;;;;;5060687;27;82119;-58
2021/09/05 00:42:50;;;;;;;;;;;20.60;55.10;;;;;;5061359;27;83023;-58
2021/09/05 00:45:16;;;;;;;;;;;20.60;55.00;;;;;;5063176;27;82655;-58
2021/09/05 00:47:41;;;;;;;;;;;20.50;55.10;;;;;;5063801;27;82077;-57
2021/09/05 00:50:09;;;;;;;;;;;20.50;55.10;;;;;;5067165;27;82154;-58
2021/09/05 00:52:35;;;;;;;;;;;20.50;55.10;;;;;;5062453;27;82117;-58
2021/09/05 00:55:01;;;;;;;;;;;20.50;55.10;;;;;;5063280;27;82131;-58
2021/09/05 00:57:26;;;;;;;;;;;20.50;55.20;;;;;;5064149;27;83919;-57
2021/09/05 00:59:52;;;;;;;;;;;20.50;55.10;;;;;;5065151;27;81319;-58
2021/09/05 01:02:18;;;;;;;;;;;20.50;55.10;;;;;;5063128;27;82110;-57
2021/09/05 01:04:43;;;;;;;;;;;20.50;55.20;;;;;;5064972;27;83155;-58
2021/09/05 01:07:10;;;;;;;;;;;20.40;55.10;;;;;;5062286;27;84635;-58
2021/09/05 01:09:36;;;;;;;;;;;20.40;55.00;;;;;;5064836;27;83227;-58
2021/09/05 01:12:02;;;;;;;;;;;20.40;55.00;;;;;;5066433;27;82926;-58
2021/09/05 01:14:27;;;;;;;;;;;20.40;55.10;;;;;;5063262;27;83012;-58
2021/09/05 01:16:53;;;;;;;;;;;20.40;55.00;;;;;;5063962;27;83545;-58
2021/09/05 01:19:20;;;;;;;;;;;20.40;55.10;;;;;;5064596;27;82052;-57
2021/09/05 01:21:47;;;;;;;;;;;20.40;55.20;;;;;;5063985;27;82909;-57
2021/09/05 01:24:13;;;;;;;;;;;20.40;55.10;;;;;;5062270;27;82428;-56
2021/09/05 01:26:45;;;;;;;;;;;20.40;55.00;;;;;;5061439;27;82154;-58
2021/09/05 01:29:11;;;;;;;;;;;20.30;55.00;;;;;;5062259;27;84218;-57
2021/09/05 01:31:38;;;;;;;;;;;20.30;55.00;;;;;;5061785;27;84400;-57
2021/09/05 01:34:04;;;;;;;;;;;20.30;55.10;;;;;;5067132;27;82084;-57
2021/09/05 01:36:29;;;;;;;;;;;20.30;55.00;;;;;;5062682;27;83402;-58
2021/09/05 01:38:55;;;;;;;;;;;20.30;55.10;;;;;;5059835;27;82064;-58
2021/09/05 01:41:20;;;;;;;;;;;20.30;55.00;;;;;;5061135;27;82476;-58
2021/09/05 01:43:46;;;;;;;;;;;20.30;55.10;;;;;;5062158;27;84557;-57
2021/09/05 01:46:11;;;;;;;;;;;20.20;55.00;;;;;;5063101;27;82144;-58
2021/09/05 01:48:37;;;;;;;;;;;20.20;55.00;;;;;;5062617;27;84042;-56
2021/09/05 01:51:03;;;;;;;;;;;20.20;55.10;;;;;;5061298;27;82494;-57
2021/09/05 01:53:28;;;;;;;;;;;20.20;54.90;;;;;;5060777;27;82097;-57
2021/09/05 01:55:54;;;;;;;;;;;20.20;55.00;;;;;;5061813;27;83088;-58
2021/09/05 01:58:19;;;;;;;;;;;20.20;55.00;;;;;;5059240;27;82060;-58
2021/09/05 02:00:45;;;;;;;;;;;20.20;55.00;;;;;;5059955;27;82091;-58
2021/09/05 02:03:10;;;;;;;;;;;20.20;55.00;;;;;;5060098;27;83220;-57
2021/09/05 02:05:36;;;;;;;;;;;20.20;55.60;;;;;;5059675;27;82075;-58
2021/09/05 02:08:01;;;;;;;;;;;20.20;55.00;;;;;;5059319;27;82882;-56
2021/09/05 02:10:27;;;;;;;;;;;20.10;55.00;;;;;;5062687;27;83018;-57
2021/09/05 02:12:53;;;;;;;;;;;20.20;54.90;;;;;;5064535;27;81340;-58
2021/09/05 02:15:18;;;;;;;;;;;20.10;55.00;;;;;;5066930;27;82212;-57
2021/09/05 02:17:44;;;;;;;;;;;20.10;54.90;;;;;;5069684;27;83138;-57
2021/09/05 02:20:10;;;;;;;;;;;20.10;54.90;;;;;;5065624;27;83793;-57
2021/09/05 02:22:35;;;;;;;;;;;20.10;55.00;;;;;;5065219;27;83589;-57
2021/09/05 02:25:01;;;;;;;;;;;20.00;55.00;;;;;;5066540;27;82102;-57
2021/09/05 02:27:26;;;;;;;;;;;20.00;55.00;;;;;;5066768;27;82534;-58
2021/09/05 02:29:52;;;;;;;;;;;20.00;54.90;;;;;;5067500;27;82911;-56
2021/09/05 02:32:17;;;;;;;;;;;20.00;55.00;;;;;;5067361;27;82122;-58
2021/09/05 02:34:43;;;;;;;;;;;20.00;55.00;;;;;;5066684;27;83139;-58
2021/09/05 02:37:09;;;;;;;;;;;20.00;54.90;;;;;;5070212;27;82373;-57
2021/09/05 02:39:35;;;;;;;;;;;20.00;54.80;;;;;;5066882;27;82189;-58
2021/09/05 02:42:01;;;;;;;;;;;20.00;54.90;;;;;;5065841;27;82900;-58
2021/09/05 02:44:26;;;;;;;;;;;19.90;54.90;;;;;;5064429;27;83011;-57
2021/09/05 02:46:52;;;;;;;;;;;19.90;54.80;;;;;;5065056;27;83464;-58
2021/09/05 02:49:17;;;;;;;;;;;19.90;54.90;;;;;;5066249;27;82659;-58
2021/09/05 02:51:43;;;;;;;;;;;19.90;54.90;;;;;;5066579;27;83577;-56
2021/09/05 02:54:08;;;;;;;;;;;19.90;54.90;;;;;;5063379;27;82788;-56
2021/09/05 02:56:34;;;;;;;;;;;19.80;54.80;;;;;;5066749;27;83104;-57
2021/09/05 02:59:00;;;;;;;;;;;19.90;54.90;;;;;;5068287;27;83774;-57
2021/09/05 03:01:25;;;;;;;;;;;19.80;54.90;;;;;;5067311;27;83351;-57
2021/09/05 03:03:51;;;;;;;;;;;19.80;54.90;;;;;;5066704;27;82089;-58
2021/09/05 03:06:17;;;;;;;;;;;19.80;54.90;;;;;;5066054;27;82331;-58
2021/09/05 03:08:43;;;;;;;;;;;19.80;54.90;;;;;;5063932;27;84251;-58
2021/09/05 03:11:08;;;;;;;;;;;19.80;54.80;;;;;;5065612;27;82063;-58
2021/09/05 03:13:34;;;;;;;;;;;19.80;54.90;;;;;;5065725;27;82144;-57
2021/09/05 03:15:59;;;;;;;;;;;19.70;54.80;;;;;;5066928;27;82361;-56
2021/09/05 03:18:25;;;;;;;;;;;19.70;54.90;;;;;;5062428;27;83088;-57
2021/09/05 03:20:50;;;;;;;;;;;19.70;54.90;;;;;;5065069;27;82135;-56
2021/09/05 03:23:16;;;;;;;;;;;19.70;55.00;;;;;;5063697;27;82124;-58
2021/09/05 03:25:41;;;;;;;;;;;19.70;54.90;;;;;;5064905;27;83555;-56
2021/09/05 03:28:07;;;;;;;;;;;19.70;54.90;;;;;;5065864;27;84341;-57
2021/09/05 03:30:33;;;;;;;;;;;19.70;55.00;;;;;;5065034;27;83492;-57
2021/09/05 03:32:58;;;;;;;;;;;19.70;54.90;;;;;;5066180;27;83987;-58
2021/09/05 03:35:24;;;;;;;;;;;19.60;54.90;;;;;;5063087;27;83657;-56
2021/09/05 03:37:49;;;;;;;;;;;19.60;54.80;;;;;;5062044;27;82119;-58
2021/09/05 03:40:15;;;;;;;;;;;19.60;54.90;;;;;;5063347;27;82720;-57
2021/09/05 03:42:40;;;;;;;;;;;19.60;55.00;;;;;;5067050;27;84768;-57
2021/09/05 03:45:06;;;;;;;;;;;19.60;54.90;;;;;;5065859;27;82505;-56
2021/09/05 03:47:32;;;;;;;;;;;19.60;55.00;;;;;;5065427;27;83862;-58
2021/09/05 03:49:57;;;;;;;;;;;19.60;54.90;;;;;;5062832;27;83114;-57
2021/09/05 03:52:25;;;;;;;;;;;19.50;55.00;;;;;;5062415;27;82147;-57
2021/09/05 03:54:51;;;;;;;;;;;19.50;55.00;;;;;;5064265;27;83829;-58
2021/09/05 03:57:17;;;;;;;;;;;19.50;55.00;;;;;;5062659;27;83824;-58
2021/09/05 03:59:43;;;;;;;;;;;19.50;55.00;;;;;;5061883;27;83950;-57
2021/09/05 04:02:08;;;;;;;;;;;19.50;54.90;;;;;;5062515;27;82755;-58
2021/09/05 04:04:34;;;;;;;;;;;19.50;54.90;;;;;;5066801;27;82118;-58
2021/09/05 04:07:02;;;;;;;;;;;19.50;54.90;;;;;;5064982;27;84186;-57
2021/09/05 04:12:16;;;;;;;;;;;19.40;54.90;;;;;;5061175;27;83590;-57
2021/09/05 04:14:41;;;;;;;;;;;19.40;54.90;;;;;;5066375;27;81539;-57
2021/09/05 04:17:07;;;;;;;;;;;19.40;55.00;;;;;;5064967;27;82093;-57
2021/09/05 04:19:33;;;;;;;;;;;19.40;55.00;;;;;;5064769;27;82991;-58
2021/09/05 04:21:59;;;;;;;;;;;19.40;54.90;;;;;;5064843;27;85729;-57
2021/09/05 04:24:24;;;;;;;;;;;19.40;55.00;;;;;;5063527;27;82981;-58
2021/09/05 04:26:50;;;;;;;;;;;19.30;54.90;;;;;;5063751;27;82757;-57
2021/09/05 04:29:15;;;;;;;;;;;19.30;54.90;;;;;;5062171;27;82069;-57
2021/09/05 04:31:41;;;;;;;;;;;19.40;54.90;;;;;;5063464;27;82529;-58
2021/09/05 04:34:07;;;;;;;;;;;19.30;54.90;;;;;;5064296;27;83032;-57
2021/09/05 04:36:32;;;;;;;;;;;19.30;54.90;;;;;;5064863;27;82134;-56
2021/09/05 04:38:58;;;;;;;;;;;19.30;55.00;;;;;;5062917;27;81954;-57
2021/09/05 04:41:23;;;;;;;;;;;19.30;54.90;;;;;;5061165;27;82083;-57
2021/09/05 04:43:49;;;;;;;;;;;19.30;54.90;;;;;;5062684;27;82090;-56
2021/09/05 04:46:14;;;;;;;;;;;19.30;54.90;;;;;;5065740;27;83041;-57
2021/09/05 04:48:40;;;;;;;;;;;19.30;54.80;;;;;;5065035;27;82099;-58
2021/09/05 04:51:06;;;;;;;;;;;19.20;54.80;;;;;;5065073;27;84206;-57
2021/09/05 04:53:32;;;;;;;;;;;19.20;54.90;;;;;;5063923;27;83980;-58
2021/09/05 04:55:58;;;;;;;;;;;19.20;54.90;;;;;;5061779;27;83189;-57
2021/09/05 04:58:23;;;;;;;;;;;19.20;54.90;;;;;;5061115;27;82522;-56
2021/09/05 05:00:49;;;;;;;;;;;19.20;54.90;;;;;;5061891;27;84207;-58
2021/09/05 05:03:15;;;;;;;;;;;19.20;55.00;;;;;;5062384;27;81337;-56
2021/09/05 05:05:41;;;;;;;;;;;19.10;55.00;;;;;;5061699;27;82102;-57
2021/09/05 05:08:06;;;;;;;;;;;19.10;55.00;;;;;;5065560;27;82643;-57
2021/09/05 05:10:32;;;;;;;;;;;19.10;55.00;;;;;;5062538;27;83123;-58
2021/09/05 05:12:58;;;;;;;;;;;19.10;55.10;;;;;;5063372;27;82835;-57
2021/09/05 05:15:23;;;;;;;;;;;19.10;55.10;;;;;;5062498;27;82156;-58
2021/09/05 05:17:49;;;;;;;;;;;19.10;55.10;;;;;;5062109;27;82401;-58
2021/09/05 05:20:14;;;;;;;;;;;19.10;55.10;;;;;;5063143;27;83355;-57
2021/09/05 05:22:40;;;;;;;;;;;19.10;55.10;;;;;;5064372;27;82113;-58
2021/09/05 05:25:06;;;;;;;;;;;19.10;55.10;;;;;;5063539;27;83672;-57
2021/09/05 05:27:32;;;;;;;;;;;19.10;55.10;;;;;;5062913;27;83845;-57
2021/09/05 05:29:57;;;;;;;;;;;19.10;55.10;;;;;;5062720;27;82169;-56
2021/09/05 05:32:24;;;;;;;;;;;19.10;55.10;;;;;;5060944;27;82154;-57
2021/09/05 05:34:49;;;;;;;;;;;19.10;55.20;;;;;;5060202;27;83000;-57
2021/09/05 05:37:15;;;;;;;;;;;19.10;55.10;;;;;;5060391;27;83358;-58
2021/09/05 05:39:40;;;;;;;;;;;19.10;55.10;;;;;;5061287;27;84234;-57
2021/09/05 05:42:06;;;;;;;;;;;19.10;55.00;;;;;;5061110;27;82066;-58
2021/09/05 05:44:32;;;;;;;;;;;19.10;55.10;;;;;;5060857;27;83880;-57
2021/09/05 05:46:57;;;;;;;;;;;19.10;55.00;;;;;;5061212;27;83308;-57
2021/09/05 05:49:23;;;;;;;;;;;19.10;55.10;;;;;;5060877;27;82062;-58
2021/09/05 05:51:49;;;;;;;;;;;19.10;55.20;;;;;;5063204;27;83594;-58
2021/09/05 05:54:15;;;;;;;;;;;19.10;55.30;;;;;;5059182;27;83588;-58
2021/09/05 05:56:42;;;;;;;;;;;19.10;55.40;;;;;;5062118;27;84468;-57
2021/09/05 05:59:08;;;;;;;;;;;19.10;55.40;;;;;;5061673;27;85797;-57
2021/09/05 06:01:33;;;;;;;;;;;19.10;55.40;;;;;;5061868;27;82145;-57
2021/09/05 06:03:59;;;;;;;;;;;19.10;55.40;;;;;;5061664;27;82515;-56
2021/09/05 06:06:24;;;;;;;;;;;19.10;55.40;;;;;;5063080;27;82710;-58
2021/09/05 06:08:50;;;;;;;;;;;19.00;55.50;;;;;;5063514;27;82962;-57
2021/09/05 06:11:15;;;;;;;;;;;19.00;55.60;;;;;;5064171;27;83963;-57
2021/09/05 06:13:41;;;;;;;;;;;19.00;55.60;;;;;;5065753;27;84086;-56
2021/09/05 06:16:06;;;;;;;;;;;19.00;55.60;;;;;;5063429;27;81433;-58
2021/09/05 06:18:33;;;;;;;;;;;19.00;55.60;;;;;;5061863;27;82845;-56
2021/09/05 06:20:58;;;;;;;;;;;19.00;55.70;;;;;;5060624;27;82113;-57
2021/09/05 06:23:24;;;;;;;;;;;19.00;55.60;;;;;;5060745;27;83058;-56
2021/09/05 06:25:49;;;;;;;;;;;19.00;55.70;;;;;;5060204;27;84421;-55
2021/09/05 06:28:15;;;;;;;;;;;19.00;55.60;;;;;;5060685;27;82091;-57
2021/09/05 06:30:40;;;;;;;;;;;19.00;55.60;;;;;;5063028;27;82093;-58
2021/09/05 06:33:06;;;;;;;;;;;19.00;55.80;;;;;;5062247;27;83049;-58
2021/09/05 06:35:31;;;;;;;;;;;19.00;55.80;;;;;;5064575;27;82125;-56
2021/09/05 06:37:57;;;;;;;;;;;19.00;55.90;;;;;;5061491;27;82935;-57
2021/09/05 06:40:22;;;;;;;;;;;19.00;55.80;;;;;;5064350;27;81477;-58
2021/09/05 06:42:48;;;;;;;;;;;19.00;56.00;;;;;;5063449;27;82023;-57
2021/09/05 06:45:13;;;;;;;;;;;19.00;56.00;;;;;;5062449;27;84205;-56
2021/09/05 06:47:39;;;;;;;;;;;18.90;55.90;;;;;;5060631;27;84532;-57
2021/09/05 06:50:05;;;;;;;;;;;19.00;55.90;;;;;;5059230;27;83645;-58
2021/09/05 06:52:31;;;;;;;;;;;18.90;55.90;;;;;;5059499;27;83565;-57
2021/09/05 06:54:57;;;;;;;;;;;18.90;56.00;;;;;;5063204;27;82008;-56
2021/09/05 06:57:23;;;;;;;;;;;18.90;56.10;;;;;;5059083;27;84431;-56
2021/09/05 06:59:48;;;;;;;;;;;18.90;56.00;;;;;;5061040;27;82148;-58
2021/09/05 07:02:17;;;;;;;;;;;18.90;56.10;;;;;;5066198;27;82117;-58
2021/09/05 07:04:43;;;;;;;;;;;18.90;56.10;;;;;;5062970;27;83945;-57
2021/09/05 07:07:08;;;;;;;;;;;18.90;56.10;;;;;;5064928;27;82103;-57
2021/09/05 07:09:34;;;;;;;;;;;18.90;56.10;;;;;;5065064;27;83134;-57
2021/09/05 07:11:59;;;;;;;;;;;19.00;56.20;;;;;;5061215;27;85808;-58
2021/09/05 07:14:25;;;;;;;;;;;18.90;56.20;;;;;;5063437;27;83666;-57
2021/09/05 07:16:50;;;;;;;;;;;18.90;56.20;;;;;;5065986;27;82418;-57
2021/09/05 07:19:16;;;;;;;;;;;18.90;56.30;;;;;;5062342;27;82166;-57
2021/09/05 07:21:41;;;;;;;;;;;18.90;56.30;;;;;;5061722;27;83819;-57
2021/09/05 07:24:07;;;;;;;;;;;18.90;56.30;;;;;;5061934;27;84683;-57
2021/09/05 07:26:32;;;;;;;;;;;18.90;56.20;;;;;;5062412;27;83544;-57
2021/09/05 07:28:58;;;;;;;;;;;18.90;56.40;;;;;;5062185;27;84069;-58
2021/09/05 07:31:24;;;;;;;;;;;18.90;56.30;;;;;;5061946;27;83447;-56
2021/09/05 07:33:49;;;;;;;;;;;19.00;56.30;;;;;;5062138;27;82076;-58
2021/09/05 07:36:15;;;;;;;;;;;19.00;56.40;;;;;;5063130;27;83051;-57
2021/09/05 07:38:40;;;;;;;;;;;18.90;56.30;;;;;;5066288;27;82639;-57
2021/09/05 07:41:06;;;;;;;;;;;18.90;56.40;;;;;;5063934;27;83110;-56
2021/09/05 07:43:32;;;;;;;;;;;18.90;56.60;;;;;;5064998;27;83449;-58
2021/09/05 07:45:58;;;;;;;;;;;19.00;56.50;;;;;;5064071;27;82102;-57
2021/09/05 07:48:23;;;;;;;;;;;18.90;56.50;;;;;;5064051;27;82518;-58
2021/09/05 07:50:49;;;;;;;;;;;19.00;56.50;;;;;;5065491;27;82144;-58
2021/09/05 07:53:14;;;;;;;;;;;19.00;56.50;;;;;;5065878;27;81426;-57
2021/09/05 07:55:40;;;;;;;;;;;18.90;56.60;;;;;;5063244;27;82858;-56
2021/09/05 07:58:05;;;;;;;;;;;18.90;56.80;;;;;;5061462;27;82745;-56
2021/09/05 08:00:31;;;;;;;;;;;18.90;56.80;;;;;;5065494;27;83073;-57
2021/09/05 08:02:56;;;;;;;;;;;18.90;56.80;;;;;;5064468;27;84879;-57
2021/09/05 08:05:22;;;;;;;;;;;18.90;56.80;;;;;;5064965;27;82787;-58
2021/09/05 08:07:47;;;;;;;;;;;18.90;56.80;;;;;;5062456;27;83701;-58
2021/09/05 08:10:13;;;;;;;;;;;18.90;56.90;;;;;;5063687;27;82652;-57
2021/09/05 08:12:38;;;;;;;;;;;18.90;56.90;;;;;;5063955;27;82119;-56
2021/09/05 08:15:04;;;;;;;;;;;18.90;56.80;;;;;;5065331;27;82479;-57
2021/09/05 08:17:30;;;;;;;;;;;19.00;56.70;;;;;;5064743;27;82334;-57
2021/09/05 08:19:55;;;;;;;;;;;19.00;56.80;;;;;;5063307;27;82989;-58
2021/09/05 08:22:21;;;;;;;;;;;18.90;56.90;;;;;;5064869;27;82471;-58
2021/09/05 08:24:47;;;;;;;;;;;18.90;56.80;;;;;;5061802;27;83136;-56
2021/09/05 08:27:12;;;;;;;;;;;19.00;57.10;;;;;;5062288;27;85020;-58
2021/09/05 08:29:38;;;;;;;;;;;19.00;57.20;;;;;;5062578;27;82707;-58
2021/09/05 08:32:03;;;;;;;;;;;19.00;56.90;;;;;;5062646;27;82057;-57
2021/09/05 08:34:33;;;;;;;;;;;19.00;57.00;;;;;;5063605;27;83128;-58
2021/09/05 08:36:59;;;;;;;;;;;19.00;57.20;;;;;;5064384;27;84754;-58
2021/09/05 08:39:27;;;;;;;;;;;19.00;57.10;;;;;;5064757;27;83641;-56
2021/09/05 08:41:53;;;;;;;;;;;19.00;57.00;;;;;;5067501;27;83431;-58
2021/09/05 08:44:19;;;;;;;;;;;19.00;57.30;;;;;;5064271;27;82123;-57
2021/09/05 08:46:44;;;;;;;;;;;19.00;57.10;;;;;;5065480;27;82723;-57
2021/09/05 08:49:10;;;;;;;;;;;19.00;57.30;;;;;;5063774;27;83989;-58
2021/09/05 08:51:35;;;;;;;;;;;19.00;57.30;;;;;;5063002;27;82176;-58
2021/09/05 08:54:01;;;;;;;;;;;19.00;57.30;;;;;;5060371;27;82099;-57
2021/09/05 08:56:27;;;;;;;;;;;19.00;57.30;;;;;;5061530;27;82529;-58
2021/09/05 08:58:52;;;;;;;;;;;19.10;57.30;;;;;;5064065;27;82114;-57
2021/09/05 09:01:26;;;;;;;;;;;19.00;57.20;;;;;;5063316;27;83818;-57
2021/09/05 09:04:02;;;;;;;;;;;19.00;57.40;;;;;;5063627;27;83198;-58
2021/09/05 09:06:35;;;;;;;;;;;19.00;57.30;;;;;;5062188;27;82639;-57
2021/09/05 09:09:02;;;;;;;;;;;19.00;57.10;;;;;;5064647;27;83111;-57
2021/09/05 09:11:43;;;;;;;;;;;19.00;56.90;;;;;;5062428;27;82142;-58
2021/09/05 09:14:09;;;;;;;;;;;19.00;56.60;;;;;;5060187;27;83025;-57
2021/09/05 09:16:34;;;;;;;;;;;18.90;56.50;;;;;;5059972;27;82274;-58
2021/09/05 09:19:00;;;;;;;;;;;18.90;56.80;;;;;;5063777;27;82240;-56
2021/09/05 09:21:25;;;;;;;;;;;18.80;56.80;;;;;;5064112;27;82803;-58
2021/09/05 09:23:51;;;;;;;;;;;18.80;56.80;;;;;;5059308;27;82632;-57
2021/09/05 09:26:17;;;;;;;;;;;18.80;56.90;;;;;;5063055;27;83463;-58
2021/09/05 09:28:49;;;;;;;;;;;18.80;56.90;;;;;;5060392;27;84578;-58
2021/09/05 09:31:16;;;;;;;;;;;18.90;56.90;;;;;;5064743;27;81430;-58
2021/09/05 09:33:46;;;;;;;;;;;18.80;56.80;;;;;;5061599;27;82087;-58
2021/09/05 09:36:15;;;;;;;;;;;18.90;56.80;;;;;;5063437;27;83257;-58
2021/09/05 09:38:42;;;;;;;;;;;18.80;56.70;;;;;;5061993;27;84505;-58
2021/09/05 09:41:12;;;;;;;;;;;18.80;56.70;;;;;;5061111;27;84872;-57
2021/09/05 09:43:47;;;;;;;;;;;18.80;56.60;;;;;;5060167;27;82907;-58
2021/09/05 09:46:14;;;;;;;;;;;18.80;56.70;;;;;;5060390;27;82165;-57
2021/09/05 09:48:47;;;;;;;;;;;18.90;56.70;;;;;;5064340;27;84279;-58
2021/09/05 09:51:13;;;;;;;;;;;18.90;56.80;;;;;;5061613;27;82933;-58
2021/09/05 09:53:40;;;;;;;;;;;18.90;56.70;;;;;;5061571;27;83886;-58
2021/09/05 09:56:06;;;;;;;;;;;18.90;56.60;;;;;;5064097;27;81354;-58
2021/09/05 09:58:32;;;;;;;;;;;18.90;56.60;;;;;;5062545;27;82142;-58
2021/09/05 10:00:58;;;;;;;;;;;18.90;56.50;;;;;;5062810;27;82081;-58
2021/09/05 10:03:25;;;;;;;;;;;18.90;56.40;;;;;;5060854;27;83984;-57
2021/09/05 10:05:52;;;;;;;;;;;18.90;56.30;;;;;;5060153;27;82122;-58
2021/09/05 10:08:18;;;;;;;;;;;19.00;56.30;;;;;;5060340;27;83622;-58
2021/09/05 10:10:45;;;;;;;;;;;19.00;56.40;;;;;;5066900;27;84856;-58
2021/09/05 10:13:10;;;;;;;;;;;19.00;56.40;;;;;;5061825;27;83245;-58
2021/09/05 10:15:36;;;;;;;;;;;19.00;56.30;;;;;;5061222;27;83324;-58
2021/09/05 10:18:02;;;;;;;;;;;19.00;56.30;;;;;;5061583;27;82092;-58
2021/09/05 10:20:27;;;;;;;;;;;19.00;56.20;;;;;;5061787;27;81351;-58
2021/09/05 10:22:53;;;;;;;;;;;19.00;56.20;;;;;;5061825;27;82881;-58
2021/09/05 10:25:19;;;;;;;;;;;19.00;56.80;;;;;;5061324;27;82203;-57
2021/09/05 10:27:48;;;;;;;;;;;19.00;56.10;;;;;;5059522;27;83488;-58
2021/09/05 10:30:15;;;;;;;;;;;19.00;56.00;;;;;;5061813;27;84680;-58
2021/09/05 10:32:43;;;;;;;;;;;19.00;55.90;;;;;;5064033;27;82133;-57
2021/09/05 10:35:27;;;;;;;;;;;19.00;55.90;;;;;;5064108;27;84777;-58
2021/09/05 10:38:08;;;;;;;;;;;19.00;56.00;;;;;;5062091;27;82127;-58
2021/09/05 10:40:40;;;;;;;;;;;19.10;55.20;;;;;;5063259;27;82966;-59
2021/09/05 10:43:06;;;;;;;;;;;19.10;53.60;;;;;;5066703;27;83133;-61
2021/09/05 10:45:33;;;;;;;;;;;19.30;52.90;;;;;;5066679;27;81360;-58
2021/09/05 11:34:54;;;;;;;;;;;19.70;50.30;;;;;;5060122;27;80339;-59
2021/09/05 11:37:33;;;;;;;;;;;19.80;51.30;;;;;;5059243;27;80314;-60
2021/09/05 11:40:08;;;;;;;;;;;19.80;50.80;;;;;;5060673;27;80573;-60
2021/09/05 11:42:34;;;;;;;;;;;19.80;51.20;;;;;;5047306;27;82925;-58
2021/09/05 11:45:11;;;;;;;;;;;19.80;51.40;;;;;;5037809;27;80448;-60
2021/09/05 11:47:37;;;;;;;;;;;19.80;51.80;;;;;;5038943;28;82823;-60
2021/09/05 11:50:03;;;;;;;;;;;19.80;51.80;;;;;;5039627;27;81229;-60
2021/09/05 11:52:29;;;;;;;;;;;19.80;52.10;;;;;;5040967;28;80319;-60
2021/09/05 11:54:59;;;;;;;;;;;19.80;52.10;;;;;;5042025;27;80550;-60
2021/09/05 11:57:25;;;;;;;;;;;19.80;51.80;;;;;;5041448;27;81965;-61
2021/09/05 11:59:54;;;;;;;;;;;19.80;52.20;;;;;;5041239;27;80398;-61
2021/09/05 12:02:30;;;;;;;;;;;19.80;52.20;;;;;;5038171;28;81845;-61
2021/09/05 12:04:56;;;;;;;;;;;19.80;52.20;;;;;;5039873;27;81304;-61
2021/09/05 12:07:21;;;;;;;;;;;19.80;52.20;;;;;;5041219;28;81041;-61
2021/09/05 12:09:47;;;;;;;;;;;19.80;52.10;;;;;;5040086;27;82577;-61
2021/09/05 12:12:12;;;;;;;;;;;19.90;52.20;;;;;;5039650;28;80424;-61
2021/09/05 12:14:38;;;;;;;;;;;19.90;52.40;;;;;;5039273;27;80557;-61
2021/09/05 12:17:23;;;;;;;;;;;19.90;52.30;;;;;;5042765;28;81526;-61
2021/09/05 12:19:57;;;;;;;;;;;19.90;52.40;;;;;;5037995;28;82275;-61
2021/09/05 12:22:23;;;;;;;;;;;20.00;52.30;;;;;;5040907;27;82005;-59
2021/09/05 12:24:56;;;;;;;;;;;20.00;52.30;;;;;;5040489;27;80322;-61
2021/09/05 12:27:21;;;;;;;;;;;20.00;52.20;;;;;;5038102;27;81114;-61
2021/09/05 12:29:47;;;;;;;;;;;20.00;52.20;;;;;;5038814;28;81930;-60
2021/09/05 12:32:13;;;;;;;;;;;20.00;52.40;;;;;;5039085;28;80449;-61
2021/09/05 12:34:44;;;;;;;;;;;20.00;52.40;;;;;;5031856;28;80555;-61
2021/09/05 12:37:13;;;;;;;;;;;20.00;52.50;;;;;;5024666;28;82767;-61
2021/09/05 12:39:39;;;;;;;;;;;20.00;52.50;;;;;;5029128;28;81865;-61
2021/09/05 12:42:05;;;;;;;;;;;20.00;52.50;;;;;;5026128;28;81666;-58
2021/09/05 12:44:38;;;;;;;;;;;20.00;52.50;;;;;;5024710;28;80387;-53
2021/09/05 12:47:03;;;;;;;;;;;20.10;49.60;;;;;;5021084;28;81986;-51
2021/09/05 12:49:37;;;;;;;;;;;20.20;49.70;;;;;;5023823;28;80405;-51
2021/09/05 12:52:02;;;;;;;;;;;20.20;49.40;;;;;;5026310;28;80402;-53
2021/09/05 12:54:28;;;;;;;;;;;20.30;48.10;;;;;;5024644;28;82309;-55
2021/09/05 12:56:53;;;;;;;;;;;20.30;47.30;;;;;;5024489;28;81745;-46
2021/09/05 12:59:19;;;;;;;;;;;20.40;47.80;;;;;;5025002;28;82063;-46
2021/09/05 13:01:48;;;;;;;;;;;20.40;47.90;;;;;;5028122;28;81617;-45
2021/09/05 13:04:14;;;;;;;;;;;20.40;47.20;;;;;;5025570;28;80344;-49
2021/09/05 13:06:39;;;;;;;;;;;20.50;48.00;;;;;;5026714;28;80813;-56
2021/09/05 13:09:05;;;;;;;;;;;20.50;47.20;;;;;;5026460;28;81455;-46
2021/09/05 13:11:31;;;;;;;;;;;20.60;46.80;;;;;;5024331;28;81284;-48
2021/09/05 13:13:57;;;;;;;;;;;20.60;46.50;;;;;;5025283;28;80968;-55
2021/09/05 13:16:22;;;;;;;;;;;20.70;45.30;;;;;;5023729;28;81404;-48
2021/09/05 13:18:48;;;;;;;;;;;20.70;46.40;;;;;;5022863;28;80399;-48
2021/09/05 13:21:14;;;;;;;;;;;20.70;45.80;;;;;;5024122;28;80491;-58
2021/09/05 13:23:44;;;;;;;;;;;20.70;45.20;;;;;;5028512;28;82623;-45
2021/09/05 13:26:10;;;;;;;;;;;20.80;45.10;;;;;;5023521;28;82077;-45
2021/09/05 13:28:36;;;;;;;;;;;20.70;45.10;;;;;;5026229;28;80669;-52
2021/09/05 13:31:02;;;;;;;;;;;;;;;;;;5026038;28;80396;-45
2021/09/05 13:33:43;;;;;;;;;;;20.90;44.20;;;;;;5062871;27;80297;-49
2021/09/05 13:36:08;;;;;;;;;;;20.80;44.30;;;;;;5044460;27;81449;-49
2021/09/05 13:38:34;;;;;;;;;;;20.80;45.00;;;;;;5037099;28;81592;-47
2021/09/05 13:40:59;;;;;;;;;;;20.90;45.40;;;;;;5039987;28;81383;-48
2021/09/05 13:43:25;;;;;;;;;;;20.90;45.80;;;;;;5038363;28;80331;-47
2021/09/05 13:45:50;;;;;;;;;;;20.90;45.80;;;;;;5038858;28;80478;-48
2021/09/05 13:48:16;;;;;;;;;;;20.90;46.50;;;;;;5040791;28;82574;-48
2021/09/05 13:50:42;;;;;;;;;;;20.80;46.60;;;;;;5041255;28;80406;-48
2021/09/05 13:53:08;;;;;;;;;;;20.80;46.80;;;;;;5042470;28;82539;-47
2021/09/05 13:55:33;;;;;;;;;;;20.70;46.90;;;;;;5040774;28;82134;-49
2021/09/05 13:57:59;;;;;;;;;;;20.80;47.50;;;;;;5041573;28;81994;-48
2021/09/05 14:00:24;;;;;;;;;;;20.70;47.30;;;;;;5040798;28;82914;-48
2021/09/05 14:02:50;;;;;;;;;;;20.70;47.70;;;;;;5041282;28;80829;-47
2021/09/05 14:05:17;;;;;;;;;;;20.70;47.80;;;;;;5041683;28;82269;-48
2021/09/05 14:07:42;;;;;;;;;;;20.70;47.90;;;;;;5040945;28;81503;-47
2021/09/05 14:10:08;;;;;;;;;;;20.80;47.90;;;;;;5040997;28;80439;-46
2021/09/05 14:12:34;;;;;;;;;;;20.80;47.40;;;;;;5038819;28;80412;-48
2021/09/05 14:15:01;;;;;;;;;;;20.80;47.00;;;;;;5039615;28;80462;-47
2021/09/05 14:17:26;;;;;;;;;;;20.70;46.70;;;;;;5038418;28;81955;-48
2021/09/05 14:19:52;;;;;;;;;;;20.70;46.70;;;;;;5039322;28;80756;-45
2021/09/05 14:22:17;;;;;;;;;;;20.70;46.60;;;;;;5040620;28;80974;-46
2021/09/05 14:24:43;;;;;;;;;;;20.70;46.70;;;;;;5040304;28;80975;-54
2021/09/05 14:27:13;;;;;;;;;;;20.70;47.00;;;;;;5040447;28;81453;-51
2021/09/05 14:48:14;;;;;;;;;;;21.00;47.40;;;;;;5023672;28;80539;-54
2021/09/05 14:55:49;;;;;;;;;;;21.10;48.10;;;;;;5025163;28;81937;-55
2021/09/05 14:58:15;;;;;;;;;;;21.00;48.20;;;;;;5023831;28;80455;-53
2021/09/05 15:00:42;;;;;;;;;;;21.00;48.00;;;;;;5027802;28;82213;-49
2021/09/05 15:03:21;;;;;;;;;;;21.00;47.30;;;;;;5024302;28;80408;-55
2021/09/05 15:06:16;;;;;;;;;;;20.90;45.90;;;;;;5025977;28;82497;-55
2021/09/05 15:11:16;;;;;;;;;;;21.00;47.00;;;;;;5023480;28;82129;-54
2021/09/05 15:13:42;;;;;;;;;;;21.00;46.40;;;;;;5026160;28;82773;-53
2021/09/05 15:16:07;;;;;;;;;;;21.00;47.10;;;;;;5026960;28;80829;-56
2021/09/05 15:18:36;;;;;;;;;;;21.00;47.10;;;;;;5026424;28;80562;-55
2021/09/05 15:21:03;;;;;;;;;;;21.00;47.80;;;;;;5023088;28;82574;-55
2021/09/05 15:23:32;;;;;;;;;;;21.10;47.60;;;;;;5029152;28;82654;-54
2021/09/05 15:25:57;;;;;;;;;;;21.10;47.70;;;;;;5024185;28;81814;-51
2021/09/05 15:54:22;;;;;;;;;;;21.10;48.20;;;;;;5024893;28;81603;-55
2021/09/05 15:56:51;;;;;;;;;;;21.10;48.30;;;;;;5021032;28;82757;-54